Almond, Wisconsin
Current Conditions -  °F | °C
As of 1:33 PM on Friday 24 Oct 2014 (Local Time) from KY50 Reporting Station
Overcast Overcast  
Wind Chill: 54°   Ceiling: 700
Heat Index: 54°   Visibility: 10mi
Dew Point: 50°   Wind: 5mph
Humidity: 88%   Direction: NA
Pressure: 29.97"   Gusts: NA
Location:  44.26°N, 89.41°W
Report Text: KY50 241833Z AUTO VRB04KT 10SM FEW001 OVC007 12/10 A2997 RMK AO2 TSNO CIG 005V010
Loading
Personal Weather Stations






























Interactive Weather Map
Tropical Storm Tracking
New forecast layout! Learn more

10-Day Weather Forecast

Advertisements
Track Severe Weather on mobile